createdAt,value
2019-05-25T00:01:24.104Z,100817.35
2019-05-25T00:03:54.635Z,100817.65
2019-05-25T00:06:25.136Z,100822.38
2019-05-25T00:08:55.698Z,100819.86
2019-05-25T00:11:26.227Z,100821.83
2019-05-25T00:13:56.717Z,100819.94
2019-05-25T00:16:27.236Z,100831.30
2019-05-25T00:18:57.706Z,100830.80
2019-05-25T00:21:28.242Z,100834.07
2019-05-25T00:24:11.197Z,100837.34
2019-05-25T00:26:31.022Z,100836.67
2019-05-25T00:29:01.430Z,100840.91
2019-05-25T00:31:31.997Z,100836.47
2019-05-25T00:34:02.472Z,100834.22
2019-05-25T00:36:33.036Z,100836.52
2019-05-25T00:39:03.619Z,100837.73
2019-05-25T00:41:34.147Z,100833.77
2019-05-25T00:44:04.747Z,100832.80
2019-05-25T00:46:35.315Z,100835.76
2019-05-25T00:49:05.785Z,100838.14
2019-05-25T00:51:36.365Z,100830.36
2019-05-25T00:54:07.658Z,100830.97
2019-05-25T00:56:38.195Z,100835.68
2019-05-25T00:59:08.696Z,100836.10
2019-05-25T01:01:39.222Z,100831.87
2019-05-25T01:04:09.722Z,100838.70
2019-05-25T01:06:40.213Z,100835.47
2019-05-25T01:09:10.884Z,100833.96
2019-05-25T01:11:41.416Z,100839.73
2019-05-25T01:14:11.907Z,100838.91
2019-05-25T01:16:42.444Z,100847.53
2019-05-25T01:19:12.966Z,100842.50
2019-05-25T01:21:43.470Z,100841.77
2019-05-25T01:24:14.311Z,100840.15
2019-05-25T01:26:44.944Z,100841.39
2019-05-25T01:29:15.523Z,100840.44
2019-05-25T01:31:46.598Z,100842.80
2019-05-25T01:34:17.118Z,100843.52
2019-05-25T01:36:47.599Z,100845.23
2019-05-25T01:39:18.171Z,100842.69
2019-05-25T01:41:48.631Z,100844.63
2019-05-25T01:44:19.212Z,100843.37
2019-05-25T01:46:49.719Z,100851.03
2019-05-25T01:49:20.229Z,100842.38
2019-05-25T01:51:50.733Z,100843.99
2019-05-25T01:54:21.295Z,100844.04
2019-05-25T01:56:51.761Z,100842.74
2019-05-25T01:59:22.362Z,100845.95
2019-05-25T02:01:52.830Z,100850.31
2019-05-25T02:04:23.165Z,100843.67
2019-05-25T02:06:53.671Z,100838.08
2019-05-25T02:09:24.206Z,100842.27
2019-05-25T02:11:54.723Z,100852.64
2019-05-25T02:14:25.279Z,100839.78
2019-05-25T02:16:55.773Z,100839.11
2019-05-25T02:19:26.243Z,100840.73
2019-05-25T02:21:56.763Z,100846.66
2019-05-25T02:24:27.205Z,100841.70
2019-05-25T02:26:57.688Z,100842.34
2019-05-25T02:29:28.258Z,100843.64
2019-05-25T02:31:58.773Z,100851.03
2019-05-25T02:34:29.282Z,100846.42
2019-05-25T02:36:59.814Z,100843.22
2019-05-25T02:39:30.292Z,100846.03
2019-05-25T02:42:00.850Z,100853.30
2019-05-25T02:44:31.334Z,100841.18
2019-05-25T02:47:01.876Z,100839.73
2019-05-25T02:49:32.409Z,100842.80
2019-05-25T02:52:02.933Z,100845.02
2019-05-25T02:54:33.432Z,100850.61
2019-05-25T02:57:04.039Z,100851.72
2019-05-25T02:59:34.556Z,100850.39
2019-05-25T03:02:05.095Z,100853.38
2019-05-25T03:04:35.567Z,100851.16
2019-05-25T03:07:06.655Z,100850.53
2019-05-25T03:09:39.095Z,100853.68
2019-05-25T03:12:10.156Z,100857.64
2019-05-25T03:14:41.327Z,100852.53
2019-05-25T03:17:12.348Z,100857.56
2019-05-25T03:19:43.041Z,100862.22
2019-05-25T03:22:13.569Z,100858.67
2019-05-25T03:24:44.134Z,100857.22
2019-05-25T03:27:14.626Z,100862.86
2019-05-25T03:29:45.144Z,100862.98
2019-05-25T03:32:15.693Z,100865.16
2019-05-25T03:34:46.260Z,100865.21
2019-05-25T03:37:16.793Z,100868.41
2019-05-25T03:39:47.329Z,100869.81
2019-05-25T03:42:17.822Z,100870.59
2019-05-25T03:44:48.412Z,100870.24
2019-05-25T03:47:18.888Z,100873.66
2019-05-25T03:49:49.436Z,100878.81
2019-05-25T03:52:19.929Z,100874.72
2019-05-25T03:54:50.460Z,100880.65
2019-05-25T03:57:20.941Z,100872.62
2019-05-25T03:59:51.458Z,100881.89
2019-05-25T04:02:21.926Z,100872.70
2019-05-25T04:04:52.454Z,100880.22
2019-05-25T04:07:22.940Z,100879.03
2019-05-25T04:09:53.436Z,100881.53
2019-05-25T04:12:23.963Z,100876.58
2019-05-25T04:14:54.405Z,100882.55
2019-05-25T04:17:24.918Z,100882.84
2019-05-25T04:19:55.431Z,100882.93
2019-05-25T04:22:25.941Z,100887.40
2019-05-25T04:24:56.411Z,100885.44
2019-05-25T04:27:26.929Z,100891.90
2019-05-25T04:29:57.449Z,100894.84
2019-05-25T04:32:27.975Z,100893.44
2019-05-25T04:34:58.442Z,100890.23
2019-05-25T04:37:28.926Z,100897.91
2019-05-25T04:39:59.419Z,100896.93
2019-05-25T04:42:29.885Z,100900.22
2019-05-25T04:45:00.407Z,100903.57
2019-05-25T04:47:30.896Z,100900.20
2019-05-25T04:50:01.366Z,100902.49
2019-05-25T04:52:31.909Z,100908.34
2019-05-25T04:55:02.402Z,100914.70
2019-05-25T04:57:32.873Z,100907.70
2019-05-25T05:00:03.402Z,100901.96
2019-05-25T05:02:33.940Z,100907.60
2019-05-25T05:05:05.533Z,100906.62
2019-05-25T05:07:36.082Z,100905.98
2019-05-25T05:10:07.488Z,100905.64
2019-05-25T05:12:37.971Z,100908.58
2019-05-25T05:15:09.335Z,100907.75
2019-05-25T05:17:39.834Z,100910.33
2019-05-25T05:20:11.031Z,100911.73
2019-05-25T05:22:41.569Z,100913.81
2019-05-25T05:25:12.573Z,100917.56
2019-05-25T05:27:43.093Z,100917.72
2019-05-25T05:30:13.703Z,100918.68
2019-05-25T05:32:44.170Z,100918.70
2019-05-25T05:35:14.652Z,100917.30
2019-05-25T05:37:46.369Z,100916.39
2019-05-25T05:40:16.896Z,100917.84
2019-05-25T05:42:49.892Z,100919.88
2019-05-25T05:45:20.398Z,100926.98
2019-05-25T05:47:52.558Z,100923.28
2019-05-25T05:50:23.443Z,100926.86
2019-05-25T05:52:56.150Z,100932.63
2019-05-25T05:55:33.080Z,100932.28
2019-05-25T05:58:03.988Z,100930.88
2019-05-25T06:00:34.510Z,100929.45
2019-05-25T06:03:05.071Z,100927.89
2019-05-25T06:05:35.570Z,100939.00
2019-05-25T06:08:36.969Z,100938.49
2019-05-25T06:11:07.484Z,100933.77
2019-05-25T06:13:37.956Z,100938.64
2019-05-25T06:16:08.457Z,100947.48
2019-05-25T06:18:39.024Z,100941.97
2019-05-25T06:21:09.515Z,100949.86
2019-05-25T06:23:39.970Z,100957.61
2019-05-25T06:26:10.495Z,100953.84
2019-05-25T06:28:40.974Z,100953.27
2019-05-25T06:31:11.429Z,100954.97
2019-05-25T06:33:41.850Z,100955.10
2019-05-25T06:36:12.365Z,100962.92
2019-05-25T06:38:42.825Z,100963.96
2019-05-25T06:41:13.355Z,100961.50
2019-05-25T06:43:43.862Z,100959.56
2019-05-25T06:46:14.364Z,100969.95
2019-05-25T06:48:44.882Z,100965.20
2019-05-25T06:51:15.373Z,100974.76
2019-05-25T06:53:47.606Z,100979.66
2019-05-25T06:56:18.162Z,100974.76
2019-05-25T06:58:48.676Z,100977.67
2019-05-25T07:01:19.201Z,100969.27
2019-05-25T07:03:49.695Z,100971.00
2019-05-25T07:06:20.248Z,100976.84
2019-05-25T07:08:50.727Z,100976.16
2019-05-25T07:11:21.232Z,100970.98
2019-05-25T07:13:51.796Z,100976.56
2019-05-25T07:16:22.324Z,100969.45
2019-05-25T07:18:52.926Z,100964.38
2019-05-25T07:21:23.546Z,100966.38
2019-05-25T07:23:54.175Z,100963.09
2019-05-25T07:26:24.801Z,100968.30
2019-05-25T07:28:55.254Z,100970.68
2019-05-25T07:31:25.792Z,100971.55
2019-05-25T07:33:56.289Z,100972.05
2019-05-25T07:36:26.751Z,100977.69
2019-05-25T07:38:57.246Z,100974.27
2019-05-25T07:41:27.803Z,100973.50
2019-05-25T07:43:58.314Z,100972.83
2019-05-25T07:46:28.861Z,100975.81
2019-05-25T07:48:59.372Z,100979.23
2019-05-25T07:51:30.013Z,100981.48
2019-05-25T07:54:00.555Z,100984.04
2019-05-25T07:56:31.076Z,100987.09
2019-05-25T07:59:01.642Z,100989.76
2019-05-25T08:01:32.114Z,100985.59
2019-05-25T08:04:02.620Z,100983.77
2019-05-25T08:06:33.095Z,100988.98
2019-05-25T08:09:04.083Z,100994.22
2019-05-25T08:11:34.572Z,100993.94
2019-05-25T08:14:05.017Z,101001.38
2019-05-25T08:16:35.481Z,100999.45
2019-05-25T08:19:05.971Z,101003.89
2019-05-25T08:21:36.514Z,101005.50
2019-05-25T08:24:07.001Z,101001.64
2019-05-25T08:26:37.490Z,101011.72
2019-05-25T08:29:07.969Z,101009.06
2019-05-25T08:31:38.472Z,101009.03
2019-05-25T08:34:08.950Z,101015.34
2019-05-25T08:36:39.439Z,101019.03
2019-05-25T08:39:09.908Z,101012.97
2019-05-25T08:41:40.508Z,101019.89
2019-05-25T08:44:10.989Z,101021.38
2019-05-25T08:46:41.451Z,101030.51
2019-05-25T08:49:11.955Z,101025.73
2019-05-25T08:51:42.428Z,101026.66
2019-05-25T08:54:12.911Z,101029.97
2019-05-25T08:56:43.443Z,101032.95
2019-05-25T08:59:13.951Z,101037.76
2019-05-25T09:02:03.646Z,101037.91
2019-05-25T09:04:34.096Z,101036.23
2019-05-25T09:07:04.614Z,101039.77
2019-05-25T09:09:35.240Z,101040.55
2019-05-25T09:12:05.697Z,101041.70
2019-05-25T09:14:37.308Z,101046.28
2019-05-25T09:17:07.860Z,101053.31
2019-05-25T09:19:38.384Z,101054.27
2019-05-25T09:22:08.855Z,101055.58
2019-05-25T09:24:39.392Z,101058.73
2019-05-25T09:27:09.821Z,101064.36
2019-05-25T09:29:40.411Z,101069.12
2019-05-25T09:32:10.947Z,101066.95
2019-05-25T09:34:41.531Z,101070.73
2019-05-25T09:37:12.062Z,101068.12
2019-05-25T09:39:42.691Z,101078.66
2019-05-25T09:42:13.187Z,101074.25
2019-05-25T09:44:43.691Z,101076.18
2019-05-25T09:47:14.195Z,101073.99
2019-05-25T09:49:44.714Z,101064.89
2019-05-25T09:52:15.216Z,101071.00
2019-05-25T09:54:45.718Z,101065.23
2019-05-25T09:57:17.287Z,101078.17
2019-05-25T09:59:47.786Z,101059.52
2019-05-25T10:02:18.322Z,101075.41
2019-05-25T10:04:48.857Z,101064.64
2019-05-25T10:07:19.339Z,101063.58
2019-05-25T10:09:49.867Z,101070.90
2019-05-25T10:12:21.288Z,101069.58
2019-05-25T10:14:51.752Z,101062.64
2019-05-25T10:17:22.306Z,101057.52
2019-05-25T10:19:52.837Z,101056.92
2019-05-25T10:22:23.294Z,101061.58
2019-05-25T10:24:54.166Z,101062.39
2019-05-25T10:27:24.988Z,101062.02
2019-05-25T10:29:55.429Z,101066.77
2019-05-25T10:32:26.062Z,101049.48
2019-05-25T10:34:57.008Z,101059.74
2019-05-25T10:37:27.503Z,101055.56
2019-05-25T10:39:58.034Z,101053.94
2019-05-25T10:42:28.822Z,101059.20
2019-05-25T10:44:59.408Z,101061.69
2019-05-25T10:47:29.912Z,101061.55
2019-05-25T10:50:00.446Z,101056.05
2019-05-25T10:52:30.960Z,101052.25
2019-05-25T10:55:01.583Z,101061.11
2019-05-25T10:57:32.147Z,101058.34
2019-05-25T11:00:02.644Z,101058.14
2019-05-25T11:02:33.205Z,101058.14
2019-05-25T11:05:03.870Z,101058.14
2019-05-25T11:07:35.224Z,101051.47
2019-05-25T11:10:06.279Z,101058.40
2019-05-25T11:12:36.869Z,101052.52
2019-05-25T11:15:08.299Z,101061.93
2019-05-25T11:17:38.885Z,101060.12
2019-05-25T11:20:10.589Z,101063.78
2019-05-25T11:22:41.065Z,101062.02
2019-05-25T11:25:12.341Z,101060.34
2019-05-25T11:27:42.939Z,101060.14
2019-05-25T11:30:14.318Z,101056.33
2019-05-25T11:32:44.909Z,101061.28
2019-05-25T11:35:17.471Z,101067.48
2019-05-25T11:37:48.634Z,101062.85
2019-05-25T11:40:19.923Z,101067.07
2019-05-25T11:42:50.475Z,101077.14
2019-05-25T11:45:21.484Z,101072.34
2019-05-25T11:47:52.104Z,101078.59
2019-05-25T11:50:23.005Z,101070.38
2019-05-25T11:52:53.578Z,101072.56
2019-05-25T11:55:24.107Z,101084.21
2019-05-25T11:57:54.655Z,101081.25
2019-05-25T12:00:27.245Z,101076.08
2019-05-25T12:02:57.855Z,101078.36
2019-05-25T12:05:28.532Z,101077.92
2019-05-25T12:07:59.067Z,101075.00
2019-05-25T12:10:29.582Z,101072.44
2019-05-25T12:13:00.086Z,101067.69
2019-05-25T12:15:30.688Z,101063.89
2019-05-25T12:18:01.208Z,101063.52
2019-05-25T12:20:31.736Z,101056.33
2019-05-25T12:23:01.371Z,101061.83
2019-05-25T12:25:30.841Z,101065.23
2019-05-25T12:28:00.436Z,101067.84
2019-05-25T12:30:40.293Z,101065.81
2019-05-25T12:33:01.108Z,101060.86
2019-05-25T12:35:30.631Z,101058.03
2019-05-25T12:38:00.152Z,101060.43
2019-05-25T12:40:29.648Z,101059.78
2019-05-25T12:42:59.160Z,101069.72
2019-05-25T12:45:28.696Z,101076.46
2019-05-25T12:47:58.189Z,101074.89
2019-05-25T12:50:27.641Z,101066.53
2019-05-25T12:52:57.116Z,101073.39
2019-05-25T12:55:26.587Z,101071.27
2019-05-25T12:57:56.124Z,101070.75
2019-05-25T13:00:25.800Z,101072.41
2019-05-25T13:02:55.684Z,101070.59
2019-05-25T13:05:34.064Z,101070.51
2019-05-25T13:07:56.458Z,101071.33
2019-05-25T13:10:25.943Z,101068.25
2019-05-25T13:12:57.696Z,101066.12
2019-05-25T13:15:26.693Z,101072.97
2019-05-25T13:17:56.136Z,101075.01
2019-05-25T13:20:25.614Z,101082.20
2019-05-25T13:22:55.186Z,101080.95
2019-05-25T13:25:24.680Z,101087.75
2019-05-25T13:27:54.149Z,101092.28
2019-05-25T13:30:23.648Z,101090.61
2019-05-25T13:32:53.121Z,101094.47
2019-05-25T13:35:22.643Z,101096.98
2019-05-25T13:37:52.109Z,101102.58
2019-05-25T13:40:21.590Z,101111.84
2019-05-25T13:42:51.065Z,101111.64
2019-05-25T13:45:20.655Z,101106.45
2019-05-25T13:47:50.145Z,101103.74
2019-05-25T13:50:19.713Z,101111.17
2019-05-25T13:52:49.261Z,101101.06
2019-05-25T13:55:18.756Z,101102.55
2019-05-25T13:57:48.466Z,101107.99
2019-05-25T14:00:18.396Z,101109.39
2019-05-25T14:02:48.561Z,101117.34
2019-05-25T14:05:18.287Z,101113.57
2019-05-25T14:07:48.038Z,101115.55
2019-05-25T14:10:17.548Z,101120.49
2019-05-25T14:12:47.043Z,101104.05
2019-05-25T14:15:16.959Z,101110.84
2019-05-25T14:17:46.412Z,101110.20
2019-05-25T14:20:17.634Z,101102.59
2019-05-25T14:22:47.301Z,101113.41
2019-05-25T14:25:17.026Z,101114.70
2019-05-25T14:27:46.582Z,101105.02
2019-05-25T14:30:16.454Z,101111.09
2019-05-25T14:32:46.872Z,101107.63
2019-05-25T14:35:16.855Z,101108.19
2019-05-25T14:37:46.458Z,101113.61
2019-05-25T14:40:16.436Z,101108.61
2019-05-25T14:42:45.981Z,101100.02
2019-05-25T14:45:16.284Z,101102.68
2019-05-25T14:47:45.902Z,101098.59
2019-05-25T14:50:15.629Z,101103.35
2019-05-25T14:52:45.114Z,101101.78
2019-05-25T14:55:15.588Z,101109.72
2019-05-25T14:57:45.086Z,101107.34
2019-05-25T15:00:15.964Z,101103.54
2019-05-25T15:02:46.306Z,101103.73
2019-05-25T15:05:15.889Z,101109.40
2019-05-25T15:07:45.404Z,101102.30
2019-05-25T15:10:16.225Z,101098.13
2019-05-25T15:12:45.706Z,101092.81
2019-05-25T15:15:16.574Z,101096.30
2019-05-25T15:17:46.304Z,101100.31
2019-05-25T15:20:15.880Z,101094.31
2019-05-25T15:22:46.990Z,101098.03
2019-05-25T15:25:16.683Z,101098.83
2019-05-25T15:27:46.182Z,101093.70
2019-05-25T15:30:15.903Z,101093.27
2019-05-25T15:32:45.379Z,101094.27
2019-05-25T15:35:14.950Z,101089.38
2019-05-25T15:40:33.036Z,101101.64
2019-05-25T15:43:02.515Z,101092.98
2019-05-25T15:45:31.983Z,101091.31
2019-05-25T15:48:01.450Z,101098.44
2019-05-25T15:50:30.958Z,101098.98
2019-05-25T15:53:00.482Z,101090.78
2019-05-25T15:55:30.119Z,101086.77
2019-05-25T15:57:59.577Z,101092.23
2019-05-25T16:00:49.527Z,101091.10
2019-05-25T16:03:20.095Z,101083.21
2019-05-25T16:05:50.019Z,101091.04
2019-05-25T16:08:20.442Z,101096.41
2019-05-25T16:10:51.252Z,101097.66
2019-05-25T16:13:21.361Z,101101.67
2019-05-25T16:15:50.948Z,101102.28
2019-05-25T16:18:21.038Z,101095.11
2019-05-25T16:20:50.547Z,101105.08
2019-05-25T16:23:20.071Z,101109.89
2019-05-25T16:25:49.633Z,101110.95
2019-05-25T16:28:20.046Z,101110.30
2019-05-25T16:30:49.514Z,101103.80
2019-05-25T16:33:18.837Z,101107.89
2019-05-25T16:35:48.333Z,101108.98
2019-05-25T16:38:17.983Z,101109.29
2019-05-25T16:40:47.700Z,101113.98
2019-05-25T16:43:17.164Z,101106.02
2019-05-25T16:45:46.704Z,101100.20
2019-05-25T16:48:30.823Z,101104.63
2019-05-25T16:51:00.384Z,101107.66
2019-05-25T16:53:29.832Z,101105.72
2019-05-25T16:55:59.421Z,101096.42
2019-05-25T16:58:28.944Z,101093.84
2019-05-25T17:00:58.434Z,101098.49
2019-05-25T17:03:29.179Z,101092.17
2019-05-25T17:05:58.875Z,101090.33
2019-05-25T17:08:28.456Z,101081.70
2019-05-25T17:10:58.055Z,101083.56
2019-05-25T17:13:27.603Z,101083.42
2019-05-25T17:15:57.179Z,101089.48
2019-05-25T17:18:26.766Z,101075.80
2019-05-25T17:20:56.238Z,101078.59
2019-05-25T17:23:25.724Z,101086.25
2019-05-25T17:25:55.414Z,101082.84
2019-05-25T17:28:24.859Z,101084.72
2019-05-25T17:30:54.320Z,101085.50
2019-05-25T17:33:23.847Z,101086.25
2019-05-25T17:35:53.375Z,101082.20
2019-05-25T17:38:22.855Z,101084.23
2019-05-25T17:40:52.337Z,101091.98
2019-05-25T17:43:21.781Z,101086.27
2019-05-25T17:45:51.255Z,101080.67
2019-05-25T17:48:20.804Z,101077.31
2019-05-25T17:50:50.359Z,101078.58
2019-05-25T17:53:19.845Z,101074.96
2019-05-25T17:55:49.442Z,101075.30
2019-05-25T17:58:19.020Z,101070.34
2019-05-25T18:00:50.479Z,101075.30
2019-05-25T18:03:20.333Z,101076.48
2019-05-25T18:05:49.898Z,101076.69
2019-05-25T18:08:19.464Z,101072.31
2019-05-25T18:10:53.230Z,101081.38
2019-05-25T18:13:20.210Z,101084.86
2019-05-25T18:15:49.765Z,101083.32
2019-05-25T18:18:19.328Z,101090.65
2019-05-25T18:20:48.995Z,101082.35
2019-05-25T18:23:19.294Z,101088.76
2019-05-25T18:25:49.034Z,101086.33
2019-05-25T18:28:18.586Z,101089.17
2019-05-25T18:30:48.090Z,101086.89
2019-05-25T18:33:17.674Z,101095.03
2019-05-25T18:35:47.271Z,101104.95
2019-05-25T18:38:16.971Z,101085.75
2019-05-25T18:40:46.473Z,101100.25
2019-05-25T18:43:16.012Z,101091.96
2019-05-25T18:45:45.579Z,101086.45
2019-05-25T18:48:15.085Z,101087.73
2019-05-25T18:50:44.986Z,101090.60
2019-05-25T18:53:14.591Z,101090.69
2019-05-25T18:55:44.604Z,101089.83
2019-05-25T18:58:14.135Z,101087.01
2019-05-25T19:00:43.635Z,101085.56
2019-05-25T19:03:13.227Z,101082.01
2019-05-25T19:05:42.746Z,101089.88
2019-05-25T19:08:12.271Z,101090.56
2019-05-25T19:10:41.875Z,101096.06
2019-05-25T19:13:11.357Z,101092.44
2019-05-25T19:15:40.853Z,101088.94
2019-05-25T19:18:10.370Z,101096.33
2019-05-25T19:20:39.877Z,101093.59
2019-05-25T19:23:09.351Z,101099.19
2019-05-25T19:25:38.861Z,101100.17
2019-05-25T19:28:08.372Z,101107.38
2019-05-25T19:30:37.887Z,101105.84
2019-05-25T19:33:07.507Z,101101.78
2019-05-25T19:35:36.992Z,101105.75
2019-05-25T19:38:06.526Z,101104.17
2019-05-25T19:40:36.050Z,101102.64
2019-05-25T19:43:05.567Z,101104.86
2019-05-25T19:45:35.039Z,101100.45
2019-05-25T19:48:04.628Z,101095.70
2019-05-25T19:50:34.057Z,101097.72
2019-05-25T19:53:03.562Z,101098.16
2019-05-25T19:55:33.116Z,101097.80
2019-05-25T19:58:02.666Z,101097.80
2019-05-25T20:00:32.996Z,101099.77
2019-05-25T20:03:02.526Z,101095.27
2019-05-25T20:05:32.056Z,101096.20
2019-05-25T20:08:01.555Z,101094.32
2019-05-25T20:10:31.097Z,101101.45
2019-05-25T20:13:00.621Z,101102.01
2019-05-25T20:15:30.103Z,101101.69
2019-05-25T20:17:59.650Z,101089.97
2019-05-25T20:20:29.882Z,101087.58
2019-05-25T20:22:59.455Z,101089.75
2019-05-25T20:25:29.035Z,101090.09
2019-05-25T20:27:58.595Z,101090.98
2019-05-25T20:30:28.216Z,101082.22
2019-05-25T20:33:02.831Z,101079.86
2019-05-25T20:35:33.760Z,101086.92
2019-05-25T20:38:03.578Z,101086.48
2019-05-25T20:40:33.124Z,101089.09
2019-05-25T20:43:02.713Z,101093.53
2019-05-25T20:45:32.341Z,101085.03
2019-05-25T20:48:01.830Z,101083.48
2019-05-25T20:50:31.728Z,101076.42
2019-05-25T20:53:01.705Z,101069.09
2019-05-25T20:55:31.226Z,101068.64
2019-05-25T20:58:00.733Z,101068.66
2019-05-25T21:00:30.208Z,101073.83
2019-05-25T21:03:06.028Z,101071.62
2019-05-25T21:05:30.988Z,101062.73
2019-05-25T21:08:00.560Z,101066.66
2019-05-25T21:10:30.093Z,101063.31
2019-05-25T21:12:59.671Z,101071.70
2019-05-25T21:15:29.209Z,101074.03
2019-05-25T21:17:58.823Z,101075.50
2019-05-25T21:20:28.624Z,101073.38
2019-05-25T21:22:58.046Z,101070.84
2019-05-25T21:25:27.555Z,101075.42
2019-05-25T21:27:57.005Z,101069.98
2019-05-25T21:30:26.509Z,101070.31
2019-05-25T21:32:56.133Z,101062.53
2019-05-25T21:35:26.060Z,101065.02
2019-05-25T21:37:55.831Z,101071.73
2019-05-25T21:40:25.285Z,101064.43
2019-05-25T21:42:55.295Z,101067.66
2019-05-25T21:45:24.954Z,101063.25
2019-05-25T21:47:56.233Z,101066.52
2019-05-25T21:50:25.839Z,101066.77
2019-05-25T21:52:55.134Z,101062.80
2019-05-25T21:55:24.671Z,101066.88
2019-05-25T21:57:54.192Z,101064.98
2019-05-25T22:00:26.380Z,101067.16
2019-05-25T22:02:55.914Z,101061.14
2019-05-25T22:05:25.572Z,101055.67
2019-05-25T22:07:55.069Z,101049.64
2019-05-25T22:10:24.639Z,101042.12
2019-05-25T22:12:54.152Z,101041.61
2019-05-25T22:15:23.621Z,101041.38
2019-05-25T22:17:53.218Z,101045.81
2019-05-25T22:20:22.681Z,101039.83
2019-05-25T22:22:52.143Z,101036.73
2019-05-25T22:25:21.620Z,101045.14
2019-05-25T22:27:51.160Z,101040.23
2019-05-25T22:30:21.306Z,101045.77
2019-05-25T22:32:50.809Z,101040.66
2019-05-25T22:35:20.289Z,101033.98
2019-05-25T22:37:49.747Z,101033.87
2019-05-25T22:40:19.294Z,101032.78
2019-05-25T22:42:48.764Z,101024.28
2019-05-25T22:45:19.058Z,101028.12
2019-05-25T22:47:48.569Z,101020.80
2019-05-25T22:50:18.037Z,101018.27
2019-05-25T22:52:47.473Z,101006.87
2019-05-25T22:55:17.057Z,101007.23
2019-05-25T22:57:46.592Z,101005.28
2019-05-25T23:00:16.486Z,100999.42
2019-05-25T23:02:45.939Z,101001.36
2019-05-25T23:05:15.431Z,100999.43
2019-05-25T23:07:44.889Z,100994.89
2019-05-25T23:10:14.728Z,101001.77
2019-05-25T23:12:44.187Z,100995.77
2019-05-25T23:15:13.757Z,100995.91
2019-05-25T23:17:43.250Z,101003.96
2019-05-25T23:20:13.856Z,101002.64
2019-05-25T23:22:43.297Z,100998.91
2019-05-25T23:25:12.770Z,100992.81
2019-05-25T23:27:42.258Z,100992.20
2019-05-25T23:30:12.002Z,100991.97
2019-05-25T23:32:41.509Z,100986.80
2019-05-25T23:35:11.062Z,100984.67
2019-05-25T23:37:40.515Z,100987.17
2019-05-25T23:40:10.109Z,100980.57
2019-05-25T23:42:39.570Z,100978.67
2019-05-25T23:45:09.345Z,100969.78
2019-05-25T23:47:38.843Z,100971.95
2019-05-25T23:50:08.788Z,100960.08
2019-05-25T23:52:38.237Z,100963.18
2019-05-25T23:55:08.091Z,100950.84
2019-05-25T23:57:37.544Z,100952.16
